Wan Hai 510 — 9VJJ8 — position and weather

sailwx.info

Track history (hours):
 
Tides and Currents Weather Stations Pressure Air Temp Water Temp Dewpoint Dewpoint Depression Visibility Wind Speed Wind Dir Waves Ship Positions

Wan Hai 510

Last reported at 2017-Jan-09 06:33 UTC. Time now 2017-Jan-24 13:22 UTC.
Position N 01°14' E 103°42'.
Warning: this ship's position is 15 days out of date.

Length 269 m; draft 10.9 m.

Type: Ship. MMSI: 565706755.

Date/timePositionNaut miles runAvg speedWind from/ knotsBaromVisibWave heightAir tempDewpointWater temp
2017-Jan-09 06:33N 01°14' E 103°42'5 5.1
2017-Jan-09 05:29N 01°16' E 103°47'0 0.0
2017-Jan-09 04:29N 01°16' E 103°47'0 0.0
2017-Jan-09 03:29N 01°16' E 103°47'0 0.0
2017-Jan-09 02:29N 01°16' E 103°47'0 0.0
2017-Jan-09 01:29N 01°16' E 103°47'0 0.0
2017-Jan-09 00:32N 01°16' E 103°47'0 0.0
2017-Jan-08 23:05N 01°16' E 103°47'0 0.0
2017-Jan-08 22:23N 01°16' E 103°47'0 0.0
2017-Jan-08 20:29N 01°16' E 103°47'2 2.6
2017-Jan-08 19:33N 01°14' E 103°48'1010.4
2017-Jan-08 18:32N 01°15' E 103°58'  
2017-Jan-02 18:33N 22°32' E 119°55'1616.0
2017-Jan-02 17:33N 22°32' E 120°12'7 6.7
2017-Jan-02 16:33N 22°34' E 120°19'1 0.5
2017-Jan-02 15:31N 22°35' E 120°18'0 0.0
2017-Jan-02 14:31N 22°35' E 120°18'0 0.0
2017-Jan-02 13:31N 22°35' E 120°18'0 0.0
2017-Jan-02 12:31N 22°35' E 120°18'0 0.0
2017-Jan-02 11:31N 22°35' E 120°18'0 0.0
2017-Jan-02 10:13N 22°35' E 120°18'0 0.0
2017-Jan-02 09:31N 22°35' E 120°18'0 0.1
2017-Jan-02 08:31N 22°35' E 120°18'0 0.0
2017-Jan-02 07:31N 22°35' E 120°18'0 0.0
2017-Jan-02 06:25N 22°35' E 120°18'0 0.0
2017-Jan-02 05:31N 22°35' E 120°18'0 0.0
2017-Jan-02 04:19N 22°35' E 120°18'0 0.1
2017-Jan-02 03:31N 22°35' E 120°18'0 0.0
2017-Jan-02 02:19N 22°35' E 120°18'0 0.0
2017-Jan-02 01:31N 22°35' E 120°18'0 0.0
2017-Jan-02 00:31N 22°35' E 120°18'0 0.0
2017-Jan-01 23:31N 22°35' E 120°18'0 0.0
2017-Jan-01 22:31N 22°35' E 120°18'0 0.0
2017-Jan-01 21:25N 22°35' E 120°18'0 0.0
2017-Jan-01 20:31N 22°35' E 120°18'0 0.0
2017-Jan-01 19:31N 22°35' E 120°18'0 0.0
2017-Jan-01 18:31N 22°35' E 120°18'0 0.0
2017-Jan-01 17:31N 22°35' E 120°18'0 0.0
2017-Jan-01 16:25N 22°35' E 120°18'0 0.0
2017-Jan-01 15:25N 22°35' E 120°18'0 0.0
2017-Jan-01 14:31N 22°35' E 120°18'0 0.0
2017-Jan-01 13:31N 22°35' E 120°18'0 0.0
2017-Jan-01 12:31N 22°35' E 120°18'4 4.1
2017-Jan-01 11:33N 22°32' E 120°15'1212.3
2017-Jan-01 10:33N 22°24' E 120°05'0 0.4
2017-Jan-01 09:24N 22°23' E 120°05'0 0.2
2017-Jan-01 08:30N 22°23' E 120°05'7 7.8
2017-Jan-01 07:33N 22°27' E 119°58'1110.5
2017-Jan-01 06:33N 22°23' E 119°48'  
Track history (hours):
 
Tides and Currents Weather Stations Pressure Air Temp Water Temp Dewpoint Dewpoint Depression Visibility Wind Speed Wind Dir Waves Ship Positions

Wan Hai 510

Last reported at 2017-Jan-09 06:33 UTC. Time now 2017-Jan-24 13:22 UTC.
Position N 01°14' E 103°42'.
Warning: this ship's position is 15 days out of date.

Length 269 m; draft 10.9 m.

Type: Ship. MMSI: 565706755.

Date/timePositionNaut miles runAvg speedWind from/ knotsBaromVisibWave heightAir tempDewpointWater temp
2017-Jan-09 06:33N 01°14' E 103°42'5 5.1
2017-Jan-09 05:29N 01°16' E 103°47'0 0.0
2017-Jan-09 04:29N 01°16' E 103°47'0 0.0
2017-Jan-09 03:29N 01°16' E 103°47'0 0.0
2017-Jan-09 02:29N 01°16' E 103°47'0 0.0
2017-Jan-09 01:29N 01°16' E 103°47'0 0.0
2017-Jan-09 00:32N 01°16' E 103°47'0 0.0
2017-Jan-08 23:05N 01°16' E 103°47'0 0.0
2017-Jan-08 22:23N 01°16' E 103°47'0 0.0
2017-Jan-08 20:29N 01°16' E 103°47'2 2.6
2017-Jan-08 19:33N 01°14' E 103°48'1010.4
2017-Jan-08 18:32N 01°15' E 103°58'  
2017-Jan-02 18:33N 22°32' E 119°55'1616.0
2017-Jan-02 17:33N 22°32' E 120°12'7 6.7
2017-Jan-02 16:33N 22°34' E 120°19'1 0.5
2017-Jan-02 15:31N 22°35' E 120°18'0 0.0
2017-Jan-02 14:31N 22°35' E 120°18'0 0.0
2017-Jan-02 13:31N 22°35' E 120°18'0 0.0
2017-Jan-02 12:31N 22°35' E 120°18'0 0.0
2017-Jan-02 11:31N 22°35' E 120°18'0 0.0
2017-Jan-02 10:13N 22°35' E 120°18'0 0.0
2017-Jan-02 09:31N 22°35' E 120°18'0 0.1
2017-Jan-02 08:31N 22°35' E 120°18'0 0.0
2017-Jan-02 07:31N 22°35' E 120°18'0 0.0
2017-Jan-02 06:25N 22°35' E 120°18'0 0.0
2017-Jan-02 05:31N 22°35' E 120°18'0 0.0
2017-Jan-02 04:19N 22°35' E 120°18'0 0.1
2017-Jan-02 03:31N 22°35' E 120°18'0 0.0
2017-Jan-02 02:19N 22°35' E 120°18'0 0.0
2017-Jan-02 01:31N 22°35' E 120°18'0 0.0
2017-Jan-02 00:31N 22°35' E 120°18'0 0.0
2017-Jan-01 23:31N 22°35' E 120°18'0 0.0
2017-Jan-01 22:31N 22°35' E 120°18'0 0.0
2017-Jan-01 21:25N 22°35' E 120°18'0 0.0
2017-Jan-01 20:31N 22°35' E 120°18'0 0.0
2017-Jan-01 19:31N 22°35' E 120°18'0 0.0
2017-Jan-01 18:31N 22°35' E 120°18'0 0.0
2017-Jan-01 17:31N 22°35' E 120°18'0 0.0
2017-Jan-01 16:25N 22°35' E 120°18'0 0.0
2017-Jan-01 15:25N 22°35' E 120°18'0 0.0
2017-Jan-01 14:31N 22°35' E 120°18'0 0.0
2017-Jan-01 13:31N 22°35' E 120°18'0 0.0
2017-Jan-01 12:31N 22°35' E 120°18'4 4.1
2017-Jan-01 11:33N 22°32' E 120°15'1212.3
2017-Jan-01 10:33N 22°24' E 120°05'0 0.4
2017-Jan-01 09:24N 22°23' E 120°05'0 0.2
2017-Jan-01 08:30N 22°23' E 120°05'7 7.8
2017-Jan-01 07:33N 22°27' E 119°58'1110.5
2017-Jan-01 06:33N 22°23' E 119°48'  

Dump ship's entire track history